sensor_id;sensor_type;location;lat;lon;timestamp;temperature;humidity
3356;DHT22;1691;52.486;13.374;2022-11-20T00:01:21;1.90;98.70
3356;DHT22;1691;52.486;13.374;2022-11-20T00:03:51;1.80;98.70
3356;DHT22;1691;52.486;13.374;2022-11-20T00:06:20;1.80;98.70
3356;DHT22;1691;52.486;13.374;2022-11-20T00:08:48;1.80;98.70
3356;DHT22;1691;52.486;13.374;2022-11-20T00:11:17;1.80;98.70
3356;DHT22;1691;52.486;13.374;2022-11-20T00:13:47;1.80;98.70
3356;DHT22;1691;52.486;13.374;2022-11-20T00:16:17;1.80;98.70
3356;DHT22;1691;52.486;13.374;2022-11-20T00:18:46;1.80;98.70
3356;DHT22;1691;52.486;13.374;2022-11-20T00:23:49;1.80;98.70
3356;DHT22;1691;52.486;13.374;2022-11-20T00:26:20;1.80;98.70
3356;DHT22;1691;52.486;13.374;2022-11-20T00:28:57;1.80;98.70
3356;DHT22;1691;52.486;13.374;2022-11-20T00:31:25;1.80;98.70
3356;DHT22;1691;52.486;13.374;2022-11-20T00:33:53;1.80;98.70
3356;DHT22;1691;52.486;13.374;2022-11-20T00:36:22;1.80;98.70
3356;DHT22;1691;52.486;13.374;2022-11-20T00:38:54;1.80;98.70
3356;DHT22;1691;52.486;13.374;2022-11-20T00:41:28;1.80;98.70
3356;DHT22;1691;52.486;13.374;2022-11-20T00:43:56;1.80;98.70
3356;DHT22;1691;52.486;13.374;2022-11-20T00:46:25;1.80;98.70
3356;DHT22;1691;52.486;13.374;2022-11-20T00:48:53;1.80;98.70
3356;DHT22;1691;52.486;13.374;2022-11-20T00:51:22;1.80;98.70
3356;DHT22;1691;52.486;13.374;2022-11-20T00:53:50;1.80;98.70
3356;DHT22;1691;52.486;13.374;2022-11-20T00:56:18;1.80;98.70
3356;DHT22;1691;52.486;13.374;2022-11-20T00:58:47;1.80;98.70
3356;DHT22;1691;52.486;13.374;2022-11-20T01:03:46;1.80;98.70
3356;DHT22;1691;52.486;13.374;2022-11-20T01:06:26;1.80;98.70
3356;DHT22;1691;52.486;13.374;2022-11-20T01:08:57;1.70;98.70
3356;DHT22;1691;52.486;13.374;2022-11-20T01:11:30;1.70;98.70
3356;DHT22;1691;52.486;13.374;2022-11-20T01:13:59;1.70;98.70
3356;DHT22;1691;52.486;13.374;2022-11-20T01:16:30;1.70;98.70
3356;DHT22;1691;52.486;13.374;2022-11-20T01:19:02;1.80;98.70
3356;DHT22;1691;52.486;13.374;2022-11-20T01:21:34;1.80;98.70
3356;DHT22;1691;52.486;13.374;2022-11-20T01:24:03;1.80;98.70
3356;DHT22;1691;52.486;13.374;2022-11-20T01:26:34;1.80;98.70
3356;DHT22;1691;52.486;13.374;2022-11-20T01:29:03;1.80;98.70
3356;DHT22;1691;52.486;13.374;2022-11-20T01:31:35;1.80;98.70
3356;DHT22;1691;52.486;13.374;2022-11-20T01:34:05;1.80;98.70
3356;DHT22;1691;52.486;13.374;2022-11-20T01:36:35;1.80;98.70
3356;DHT22;1691;52.486;13.374;2022-11-20T01:39:31;1.80;98.70
3356;DHT22;1691;52.486;13.374;2022-11-20T01:41:58;1.90;98.70
3356;DHT22;1691;52.486;13.374;2022-11-20T01:44:59;1.90;98.70
3356;DHT22;1691;52.486;13.374;2022-11-20T01:47:36;1.90;98.70
3356;DHT22;1691;52.486;13.374;2022-11-20T01:50:12;1.90;98.70
3356;DHT22;1691;52.486;13.374;2022-11-20T01:52:52;1.90;98.70
3356;DHT22;1691;52.486;13.374;2022-11-20T01:55:26;1.90;98.70
3356;DHT22;1691;52.486;13.374;2022-11-20T01:57:56;1.90;98.70
3356;DHT22;1691;52.486;13.374;2022-11-20T02:00:23;1.90;98.70
3356;DHT22;1691;52.486;13.374;2022-11-20T02:03:12;1.90;98.70
3356;DHT22;1691;52.486;13.374;2022-11-20T02:05:55;1.80;98.70
3356;DHT22;1691;52.486;13.374;2022-11-20T02:08:28;1.80;98.70
3356;DHT22;1691;52.486;13.374;2022-11-20T02:10:55;1.80;98.70
3356;DHT22;1691;52.486;13.374;2022-11-20T02:13:22;1.70;98.70
3356;DHT22;1691;52.486;13.374;2022-11-20T02:18:57;1.70;98.70
3356;DHT22;1691;52.486;13.374;2022-11-20T02:21:35;1.70;98.70
3356;DHT22;1691;52.486;13.374;2022-11-20T02:24:14;1.70;98.70
3356;DHT22;1691;52.486;13.374;2022-11-20T02:26:51;1.60;98.70
3356;DHT22;1691;52.486;13.374;2022-11-20T02:29:28;1.60;98.70
3356;DHT22;1691;52.486;13.374;2022-11-20T02:32:00;1.60;98.70
3356;DHT22;1691;52.486;13.374;2022-11-20T02:34:28;1.60;98.70
3356;DHT22;1691;52.486;13.374;2022-11-20T02:36:56;1.60;98.70
3356;DHT22;1691;52.486;13.374;2022-11-20T02:39:25;1.60;98.70
3356;DHT22;1691;52.486;13.374;2022-11-20T02:41:55;1.50;98.70
3356;DHT22;1691;52.486;13.374;2022-11-20T02:44:22;1.50;98.70
3356;DHT22;1691;52.486;13.374;2022-11-20T02:46:49;1.50;98.70
3356;DHT22;1691;52.486;13.374;2022-11-20T02:49:16;1.40;98.70
3356;DHT22;1691;52.486;13.374;2022-11-20T02:51:43;1.40;98.70
3356;DHT22;1691;52.486;13.374;2022-11-20T02:54:10;1.40;98.70
3356;DHT22;1691;52.486;13.374;2022-11-20T02:56:38;1.40;98.70
3356;DHT22;1691;52.486;13.374;2022-11-20T02:59:05;1.30;98.70
3356;DHT22;1691;52.486;13.374;2022-11-20T03:01:32;1.30;98.70
3356;DHT22;1691;52.486;13.374;2022-11-20T03:03:59;1.30;98.70
3356;DHT22;1691;52.486;13.374;2022-11-20T03:06:26;1.30;98.70
3356;DHT22;1691;52.486;13.374;2022-11-20T03:08:53;1.30;98.70
3356;DHT22;1691;52.486;13.374;2022-11-20T03:11:20;1.30;98.70
3356;DHT22;1691;52.486;13.374;2022-11-20T03:13:47;1.30;98.70
3356;DHT22;1691;52.486;13.374;2022-11-20T03:16:17;1.30;98.70
3356;DHT22;1691;52.486;13.374;2022-11-20T03:18:46;1.30;98.70
3356;DHT22;1691;52.486;13.374;2022-11-20T03:21:13;1.30;98.70
3356;DHT22;1691;52.486;13.374;2022-11-20T03:23:41;1.30;98.70
3356;DHT22;1691;52.486;13.374;2022-11-20T03:26:18;1.30;98.70
3356;DHT22;1691;52.486;13.374;2022-11-20T03:28:51;1.30;98.70
3356;DHT22;1691;52.486;13.374;2022-11-20T03:31:31;1.30;98.70
3356;DHT22;1691;52.486;13.374;2022-11-20T03:34:01;1.30;98.70
3356;DHT22;1691;52.486;13.374;2022-11-20T03:36:28;1.30;98.70
3356;DHT22;1691;52.486;13.374;2022-11-20T03:38:56;1.30;98.70
3356;DHT22;1691;52.486;13.374;2022-11-20T03:41:28;1.30;98.70
3356;DHT22;1691;52.486;13.374;2022-11-20T03:43:59;1.30;98.70
3356;DHT22;1691;52.486;13.374;2022-11-20T03:46:28;1.30;98.70
3356;DHT22;1691;52.486;13.374;2022-11-20T03:48:55;1.30;98.70
3356;DHT22;1691;52.486;13.374;2022-11-20T03:51:24;1.40;98.70
3356;DHT22;1691;52.486;13.374;2022-11-20T03:54:00;1.40;98.70
3356;DHT22;1691;52.486;13.374;2022-11-20T03:56:33;1.40;98.70
3356;DHT22;1691;52.486;13.374;2022-11-20T03:59:02;1.50;98.70
3356;DHT22;1691;52.486;13.374;2022-11-20T04:01:35;1.50;98.70
3356;DHT22;1691;52.486;13.374;2022-11-20T04:04:04;1.50;98.70
3356;DHT22;1691;52.486;13.374;2022-11-20T04:06:35;1.50;98.70
3356;DHT22;1691;52.486;13.374;2022-11-20T04:09:04;1.40;98.70
3356;DHT22;1691;52.486;13.374;2022-11-20T04:11:33;1.40;98.70
3356;DHT22;1691;52.486;13.374;2022-11-20T04:14:04;1.30;98.70
3356;DHT22;1691;52.486;13.374;2022-11-20T04:16:34;1.20;98.70
3356;DHT22;1691;52.486;13.374;2022-11-20T04:19:04;1.20;98.70
3356;DHT22;1691;52.486;13.374;2022-11-20T04:21:32;1.10;98.70
3356;DHT22;1691;52.486;13.374;2022-11-20T04:23:59;1.10;98.70
3356;DHT22;1691;52.486;13.374;2022-11-20T04:26:28;1.00;98.70
3356;DHT22;1691;52.486;13.374;2022-11-20T04:28:57;1.00;98.70
3356;DHT22;1691;52.486;13.374;2022-11-20T04:31:26;1.00;98.70
3356;DHT22;1691;52.486;13.374;2022-11-20T04:33:55;1.00;98.70
3356;DHT22;1691;52.486;13.374;2022-11-20T04:36:27;1.00;98.70
3356;DHT22;1691;52.486;13.374;2022-11-20T04:38:59;1.00;98.70
3356;DHT22;1691;52.486;13.374;2022-11-20T04:41:31;1.00;98.70
3356;DHT22;1691;52.486;13.374;2022-11-20T04:44:00;1.00;98.70
3356;DHT22;1691;52.486;13.374;2022-11-20T04:46:36;1.10;98.70
3356;DHT22;1691;52.486;13.374;2022-11-20T04:49:07;1.10;98.70
3356;DHT22;1691;52.486;13.374;2022-11-20T04:51:35;1.10;98.70
3356;DHT22;1691;52.486;13.374;2022-11-20T04:54:02;1.00;98.70
3356;DHT22;1691;52.486;13.374;2022-11-20T04:56:29;1.10;98.70
3356;DHT22;1691;52.486;13.374;2022-11-20T04:59:00;1.10;98.70
3356;DHT22;1691;52.486;13.374;2022-11-20T05:01:28;1.10;98.70
3356;DHT22;1691;52.486;13.374;2022-11-20T05:03:55;1.00;98.70
3356;DHT22;1691;52.486;13.374;2022-11-20T05:06:22;1.00;98.70
3356;DHT22;1691;52.486;13.374;2022-11-20T05:08:49;1.00;98.70
3356;DHT22;1691;52.486;13.374;2022-11-20T05:11:19;1.00;98.70
3356;DHT22;1691;52.486;13.374;2022-11-20T05:13:47;1.10;98.70
3356;DHT22;1691;52.486;13.374;2022-11-20T05:16:19;1.10;98.70
3356;DHT22;1691;52.486;13.374;2022-11-20T05:18:49;1.10;98.70
3356;DHT22;1691;52.486;13.374;2022-11-20T05:21:17;1.10;98.70
3356;DHT22;1691;52.486;13.374;2022-11-20T05:23:45;1.10;98.70
3356;DHT22;1691;52.486;13.374;2022-11-20T05:26:15;1.10;98.70
3356;DHT22;1691;52.486;13.374;2022-11-20T05:28:43;1.10;98.70
3356;DHT22;1691;52.486;13.374;2022-11-20T05:31:16;1.10;98.70
3356;DHT22;1691;52.486;13.374;2022-11-20T05:33:52;1.20;98.70
3356;DHT22;1691;52.486;13.374;2022-11-20T05:36:19;1.20;98.70
3356;DHT22;1691;52.486;13.374;2022-11-20T05:38:47;1.20;98.70
3356;DHT22;1691;52.486;13.374;2022-11-20T05:41:18;1.20;98.70
3356;DHT22;1691;52.486;13.374;2022-11-20T05:43:48;1.20;98.70
3356;DHT22;1691;52.486;13.374;2022-11-20T05:46:17;1.20;98.70
3356;DHT22;1691;52.486;13.374;2022-11-20T05:48:53;1.20;98.70
3356;DHT22;1691;52.486;13.374;2022-11-20T05:51:20;1.20;98.70
3356;DHT22;1691;52.486;13.374;2022-11-20T05:53:47;1.30;98.70
3356;DHT22;1691;52.486;13.374;2022-11-20T05:56:19;1.30;98.70
3356;DHT22;1691;52.486;13.374;2022-11-20T05:58:47;1.30;98.70
3356;DHT22;1691;52.486;13.374;2022-11-20T06:01:22;1.30;98.70
3356;DHT22;1691;52.486;13.374;2022-11-20T06:03:51;1.30;98.70
3356;DHT22;1691;52.486;13.374;2022-11-20T06:06:20;1.30;98.70
3356;DHT22;1691;52.486;13.374;2022-11-20T06:08:47;1.30;98.70
3356;DHT22;1691;52.486;13.374;2022-11-20T06:11:15;1.30;98.70
3356;DHT22;1691;52.486;13.374;2022-11-20T06:13:43;1.30;98.70
3356;DHT22;1691;52.486;13.374;2022-11-20T06:16:11;1.30;98.70
3356;DHT22;1691;52.486;13.374;2022-11-20T06:18:40;1.30;98.70
3356;DHT22;1691;52.486;13.374;2022-11-20T06:21:12;1.30;98.70
3356;DHT22;1691;52.486;13.374;2022-11-20T06:23:40;1.20;98.70
3356;DHT22;1691;52.486;13.374;2022-11-20T06:26:10;1.20;98.70
3356;DHT22;1691;52.486;13.374;2022-11-20T06:28:39;1.20;98.70
3356;DHT22;1691;52.486;13.374;2022-11-20T06:31:07;1.20;98.70
3356;DHT22;1691;52.486;13.374;2022-11-20T06:33:36;1.20;98.70
3356;DHT22;1691;52.486;13.374;2022-11-20T06:36:04;1.20;98.70
3356;DHT22;1691;52.486;13.374;2022-11-20T06:38:37;1.20;98.70
3356;DHT22;1691;52.486;13.374;2022-11-20T06:41:06;1.20;98.70
3356;DHT22;1691;52.486;13.374;2022-11-20T06:43:33;1.20;98.70
3356;DHT22;1691;52.486;13.374;2022-11-20T06:46:00;1.20;98.70
3356;DHT22;1691;52.486;13.374;2022-11-20T06:48:28;1.20;98.70
3356;DHT22;1691;52.486;13.374;2022-11-20T06:50:56;1.20;98.70
3356;DHT22;1691;52.486;13.374;2022-11-20T06:53:23;1.20;98.70
3356;DHT22;1691;52.486;13.374;2022-11-20T06:55:51;1.30;98.70
3356;DHT22;1691;52.486;13.374;2022-11-20T06:58:18;1.30;98.70
3356;DHT22;1691;52.486;13.374;2022-11-20T07:00:45;1.30;98.70
3356;DHT22;1691;52.486;13.374;2022-11-20T07:03:13;1.30;98.70
3356;DHT22;1691;52.486;13.374;2022-11-20T07:05:40;1.40;98.70
3356;DHT22;1691;52.486;13.374;2022-11-20T07:08:08;1.40;98.70
3356;DHT22;1691;52.486;13.374;2022-11-20T07:10:35;1.40;98.70
3356;DHT22;1691;52.486;13.374;2022-11-20T07:13:02;1.40;98.70
3356;DHT22;1691;52.486;13.374;2022-11-20T07:15:30;1.40;98.70
3356;DHT22;1691;52.486;13.374;2022-11-20T07:18:00;1.40;98.70
3356;DHT22;1691;52.486;13.374;2022-11-20T07:20:28;1.40;98.70
3356;DHT22;1691;52.486;13.374;2022-11-20T07:22:56;1.40;98.70
3356;DHT22;1691;52.486;13.374;2022-11-20T07:25:24;1.30;98.70
3356;DHT22;1691;52.486;13.374;2022-11-20T07:27:52;1.30;98.70
3356;DHT22;1691;52.486;13.374;2022-11-20T07:30:19;1.30;98.70
3356;DHT22;1691;52.486;13.374;2022-11-20T07:32:47;1.30;98.70
3356;DHT22;1691;52.486;13.374;2022-11-20T07:35:17;1.30;98.70
3356;DHT22;1691;52.486;13.374;2022-11-20T07:37:44;1.20;98.70
3356;DHT22;1691;52.486;13.374;2022-11-20T07:40:12;1.20;98.70
3356;DHT22;1691;52.486;13.374;2022-11-20T07:42:47;1.20;98.70
3356;DHT22;1691;52.486;13.374;2022-11-20T07:45:17;1.20;98.70
3356;DHT22;1691;52.486;13.374;2022-11-20T07:47:44;1.20;98.70
3356;DHT22;1691;52.486;13.374;2022-11-20T07:50:12;1.20;98.70
3356;DHT22;1691;52.486;13.374;2022-11-20T07:52:39;1.20;98.70
3356;DHT22;1691;52.486;13.374;2022-11-20T07:55:07;1.20;98.70
3356;DHT22;1691;52.486;13.374;2022-11-20T07:57:35;1.20;98.70
3356;DHT22;1691;52.486;13.374;2022-11-20T08:00:04;1.20;98.70
3356;DHT22;1691;52.486;13.374;2022-11-20T08:02:40;1.20;98.70
3356;DHT22;1691;52.486;13.374;2022-11-20T08:05:08;1.20;98.70
3356;DHT22;1691;52.486;13.374;2022-11-20T08:07:41;1.20;98.70
3356;DHT22;1691;52.486;13.374;2022-11-20T08:10:12;1.20;98.70
3356;DHT22;1691;52.486;13.374;2022-11-20T08:12:48;1.20;98.70
3356;DHT22;1691;52.486;13.374;2022-11-20T08:15:36;1.30;98.70
3356;DHT22;1691;52.486;13.374;2022-11-20T08:18:06;1.30;98.70
3356;DHT22;1691;52.486;13.374;2022-11-20T08:20:54;1.30;98.70
3356;DHT22;1691;52.486;13.374;2022-11-20T08:23:22;1.40;98.70
3356;DHT22;1691;52.486;13.374;2022-11-20T08:25:50;1.40;98.70
3356;DHT22;1691;52.486;13.374;2022-11-20T08:28:18;1.50;98.70
3356;DHT22;1691;52.486;13.374;2022-11-20T08:30:48;1.50;98.70
3356;DHT22;1691;52.486;13.374;2022-11-20T08:33:16;1.60;98.70
3356;DHT22;1691;52.486;13.374;2022-11-20T08:35:44;1.60;98.70
3356;DHT22;1691;52.486;13.374;2022-11-20T08:38:11;1.70;98.70
3356;DHT22;1691;52.486;13.374;2022-11-20T08:40:38;1.70;98.70
3356;DHT22;1691;52.486;13.374;2022-11-20T08:43:05;1.70;98.70
3356;DHT22;1691;52.486;13.374;2022-11-20T08:45:32;1.70;98.70
3356;DHT22;1691;52.486;13.374;2022-11-20T08:48:02;1.70;98.70
3356;DHT22;1691;52.486;13.374;2022-11-20T08:50:30;1.70;98.70
3356;DHT22;1691;52.486;13.374;2022-11-20T08:53:04;1.70;98.70
3356;DHT22;1691;52.486;13.374;2022-11-20T08:55:31;1.70;98.70
3356;DHT22;1691;52.486;13.374;2022-11-20T08:58:03;1.70;98.70
3356;DHT22;1691;52.486;13.374;2022-11-20T09:00:31;1.70;98.70
3356;DHT22;1691;52.486;13.374;2022-11-20T09:02:59;1.80;98.70
3356;DHT22;1691;52.486;13.374;2022-11-20T09:05:27;1.80;98.70
3356;DHT22;1691;52.486;13.374;2022-11-20T09:07:58;1.80;98.70
3356;DHT22;1691;52.486;13.374;2022-11-20T09:10:28;1.80;98.70
3356;DHT22;1691;52.486;13.374;2022-11-20T09:12:56;1.90;98.70
3356;DHT22;1691;52.486;13.374;2022-11-20T09:15:24;1.90;98.70
3356;DHT22;1691;52.486;13.374;2022-11-20T09:20:19;1.90;98.70
3356;DHT22;1691;52.486;13.374;2022-11-20T09:22:46;1.90;98.70
3356;DHT22;1691;52.486;13.374;2022-11-20T09:25:13;2.00;98.70
3356;DHT22;1691;52.486;13.374;2022-11-20T09:27:40;2.00;98.70
3356;DHT22;1691;52.486;13.374;2022-11-20T09:30:13;2.00;98.70
3356;DHT22;1691;52.486;13.374;2022-11-20T09:32:44;2.00;98.70
3356;DHT22;1691;52.486;13.374;2022-11-20T09:35:11;1.90;98.70
3356;DHT22;1691;52.486;13.374;2022-11-20T09:37:38;1.90;98.70
3356;DHT22;1691;52.486;13.374;2022-11-20T09:40:06;1.90;98.70
3356;DHT22;1691;52.486;13.374;2022-11-20T09:45:50;2.00;98.70
3356;DHT22;1691;52.486;13.374;2022-11-20T09:48:52;2.00;98.70
3356;DHT22;1691;52.486;13.374;2022-11-20T09:54:19;2.10;98.70
3356;DHT22;1691;52.486;13.374;2022-11-20T09:56:54;2.10;98.70
3356;DHT22;1691;52.486;13.374;2022-11-20T10:01:58;2.10;98.70
3356;DHT22;1691;52.486;13.374;2022-11-20T10:04:26;2.20;98.70
3356;DHT22;1691;52.486;13.374;2022-11-20T10:07:25;2.20;98.70
3356;DHT22;1691;52.486;13.374;2022-11-20T10:10:24;2.20;98.70
3356;DHT22;1691;52.486;13.374;2022-11-20T10:25:18;2.30;98.70
3356;DHT22;1691;52.486;13.374;2022-11-20T10:31:50;2.30;98.70
3356;DHT22;1691;52.486;13.374;2022-11-20T10:34:28;2.30;98.70
3356;DHT22;1691;52.486;13.374;2022-11-20T10:37:13;2.30;98.70
3356;DHT22;1691;52.486;13.374;2022-11-20T10:42:58;2.30;98.70
3356;DHT22;1691;52.486;13.374;2022-11-20T10:50:44;2.50;98.70
3356;DHT22;1691;52.486;13.374;2022-11-20T10:56:40;2.80;98.70
3356;DHT22;1691;52.486;13.374;2022-11-20T11:02:29;3.00;98.70
3356;DHT22;1691;52.486;13.374;2022-11-20T11:07:50;3.00;98.70
3356;DHT22;1691;52.486;13.374;2022-11-20T11:10:36;3.10;98.70
3356;DHT22;1691;52.486;13.374;2022-11-20T11:13:20;3.10;98.70
3356;DHT22;1691;52.486;13.374;2022-11-20T11:15:52;3.20;98.70
3356;DHT22;1691;52.486;13.374;2022-11-20T11:20:55;3.40;98.70
3356;DHT22;1691;52.486;13.374;2022-11-20T11:26:01;3.70;98.70
3356;DHT22;1691;52.486;13.374;2022-11-20T11:28:30;3.80;98.70
3356;DHT22;1691;52.486;13.374;2022-11-20T11:30:57;3.90;98.70
3356;DHT22;1691;52.486;13.374;2022-11-20T11:33:26;3.90;98.70
3356;DHT22;1691;52.486;13.374;2022-11-20T11:36:00;3.90;98.70
3356;DHT22;1691;52.486;13.374;2022-11-20T11:38:35;3.90;98.70
3356;DHT22;1691;52.486;13.374;2022-11-20T11:41:06;3.90;98.70
3356;DHT22;1691;52.486;13.374;2022-11-20T11:43:35;3.90;98.70
3356;DHT22;1691;52.486;13.374;2022-11-20T11:46:35;3.80;98.70
3356;DHT22;1691;52.486;13.374;2022-11-20T11:57:00;3.70;98.70
3356;DHT22;1691;52.486;13.374;2022-11-20T12:02:44;3.60;98.70
3356;DHT22;1691;52.486;13.374;2022-11-20T12:05:38;3.50;98.70
3356;DHT22;1691;52.486;13.374;2022-11-20T12:11:33;3.40;98.70
3356;DHT22;1691;52.486;13.374;2022-11-20T12:14:30;3.40;98.70
3356;DHT22;1691;52.486;13.374;2022-11-20T12:17:05;3.30;98.70
3356;DHT22;1691;52.486;13.374;2022-11-20T12:19:34;3.40;98.70
3356;DHT22;1691;52.486;13.374;2022-11-20T12:25:35;3.40;98.70
3356;DHT22;1691;52.486;13.374;2022-11-20T12:28:32;3.50;98.70
3356;DHT22;1691;52.486;13.374;2022-11-20T12:43:00;3.70;98.70
3356;DHT22;1691;52.486;13.374;2022-11-20T12:46:00;3.70;98.70
3356;DHT22;1691;52.486;13.374;2022-11-20T12:57:46;3.40;98.70
3356;DHT22;1691;52.486;13.374;2022-11-20T13:00:22;3.30;98.70
3356;DHT22;1691;52.486;13.374;2022-11-20T13:03:06;3.10;98.70
3356;DHT22;1691;52.486;13.374;2022-11-20T13:08:41;2.90;98.70
3356;DHT22;1691;52.486;13.374;2022-11-20T13:16:55;2.60;98.70
3356;DHT22;1691;52.486;13.374;2022-11-20T13:19:32;2.60;98.70
3356;DHT22;1691;52.486;13.374;2022-11-20T13:21:59;2.50;98.70
3356;DHT22;1691;52.486;13.374;2022-11-20T13:24:28;2.50;98.70
3356;DHT22;1691;52.486;13.374;2022-11-20T13:27:22;2.50;98.70
3356;DHT22;1691;52.486;13.374;2022-11-20T13:30:13;2.50;98.70
3356;DHT22;1691;52.486;13.374;2022-11-20T13:32:54;2.50;98.70
3356;DHT22;1691;52.486;13.374;2022-11-20T13:35:36;2.60;98.70
3356;DHT22;1691;52.486;13.374;2022-11-20T13:38:14;2.60;98.70
3356;DHT22;1691;52.486;13.374;2022-11-20T13:46:04;2.80;98.70
3356;DHT22;1691;52.486;13.374;2022-11-20T13:48:34;2.90;98.70
3356;DHT22;1691;52.486;13.374;2022-11-20T13:51:23;2.90;98.70
3356;DHT22;1691;52.486;13.374;2022-11-20T13:54:43;3.00;98.70
3356;DHT22;1691;52.486;13.374;2022-11-20T14:00:23;3.10;98.70
3356;DHT22;1691;52.486;13.374;2022-11-20T14:03:12;3.10;98.70
3356;DHT22;1691;52.486;13.374;2022-11-20T14:06:16;3.10;98.70
3356;DHT22;1691;52.486;13.374;2022-11-20T14:08:49;3.10;98.70
3356;DHT22;1691;52.486;13.374;2022-11-20T14:11:20;3.10;98.70
3356;DHT22;1691;52.486;13.374;2022-11-20T14:13:58;3.10;98.70
3356;DHT22;1691;52.486;13.374;2022-11-20T14:16:28;3.10;98.70
3356;DHT22;1691;52.486;13.374;2022-11-20T14:18:57;3.10;98.70
3356;DHT22;1691;52.486;13.374;2022-11-20T14:21:35;3.10;98.70
3356;DHT22;1691;52.486;13.374;2022-11-20T14:24:06;3.10;98.70
3356;DHT22;1691;52.486;13.374;2022-11-20T14:26:38;3.10;98.70
3356;DHT22;1691;52.486;13.374;2022-11-20T14:29:23;3.10;98.70
3356;DHT22;1691;52.486;13.374;2022-11-20T14:31:55;3.10;98.70
3356;DHT22;1691;52.486;13.374;2022-11-20T14:34:25;3.10;98.70
3356;DHT22;1691;52.486;13.374;2022-11-20T14:37:01;3.00;98.70
3356;DHT22;1691;52.486;13.374;2022-11-20T14:39:36;3.00;98.70
3356;DHT22;1691;52.486;13.374;2022-11-20T14:42:35;3.00;98.70
3356;DHT22;1691;52.486;13.374;2022-11-20T14:45:04;3.00;98.70
3356;DHT22;1691;52.486;13.374;2022-11-20T14:47:32;3.00;98.70
3356;DHT22;1691;52.486;13.374;2022-11-20T14:49:59;3.00;98.70
3356;DHT22;1691;52.486;13.374;2022-11-20T14:52:35;2.90;98.70
3356;DHT22;1691;52.486;13.374;2022-11-20T14:55:02;2.80;98.70
3356;DHT22;1691;52.486;13.374;2022-11-20T14:57:31;2.70;98.70
3356;DHT22;1691;52.486;13.374;2022-11-20T15:02:42;2.60;98.70
3356;DHT22;1691;52.486;13.374;2022-11-20T15:05:10;2.50;98.70
3356;DHT22;1691;52.486;13.374;2022-11-20T15:07:41;2.50;98.70
3356;DHT22;1691;52.486;13.374;2022-11-20T15:10:23;2.60;98.70
3356;DHT22;1691;52.486;13.374;2022-11-20T15:12:59;2.60;98.70
3356;DHT22;1691;52.486;13.374;2022-11-20T15:15:46;2.60;98.70
3356;DHT22;1691;52.486;13.374;2022-11-20T15:18:21;2.60;98.70
3356;DHT22;1691;52.486;13.374;2022-11-20T15:20:51;2.60;98.70
3356;DHT22;1691;52.486;13.374;2022-11-20T15:23:19;2.60;98.70
3356;DHT22;1691;52.486;13.374;2022-11-20T15:25:47;2.60;98.70
3356;DHT22;1691;52.486;13.374;2022-11-20T15:31:00;2.60;98.70
3356;DHT22;1691;52.486;13.374;2022-11-20T15:33:29;2.60;98.70
3356;DHT22;1691;52.486;13.374;2022-11-20T15:35:56;2.60;98.70
3356;DHT22;1691;52.486;13.374;2022-11-20T15:38:23;2.50;98.70
3356;DHT22;1691;52.486;13.374;2022-11-20T15:40:50;2.60;98.70
3356;DHT22;1691;52.486;13.374;2022-11-20T15:43:17;2.60;98.70
3356;DHT22;1691;52.486;13.374;2022-11-20T15:45:55;2.60;98.70
3356;DHT22;1691;52.486;13.374;2022-11-20T15:48:28;2.60;98.70
3356;DHT22;1691;52.486;13.374;2022-11-20T15:50:59;2.60;98.70
3356;DHT22;1691;52.486;13.374;2022-11-20T15:53:48;2.60;98.70
3356;DHT22;1691;52.486;13.374;2022-11-20T15:56:14;2.50;98.70
3356;DHT22;1691;52.486;13.374;2022-11-20T15:58:41;2.60;98.70
3356;DHT22;1691;52.486;13.374;2022-11-20T16:01:14;2.50;98.70
3356;DHT22;1691;52.486;13.374;2022-11-20T16:03:42;2.50;98.70
3356;DHT22;1691;52.486;13.374;2022-11-20T16:06:10;2.50;98.70
3356;DHT22;1691;52.486;13.374;2022-11-20T16:08:37;2.50;98.70
3356;DHT22;1691;52.486;13.374;2022-11-20T16:11:04;2.40;98.70
3356;DHT22;1691;52.486;13.374;2022-11-20T16:13:32;2.40;98.70
3356;DHT22;1691;52.486;13.374;2022-11-20T16:16:25;2.20;98.70
3356;DHT22;1691;52.486;13.374;2022-11-20T16:18:57;2.00;98.70
3356;DHT22;1691;52.486;13.374;2022-11-20T16:21:24;1.90;98.70
3356;DHT22;1691;52.486;13.374;2022-11-20T16:23:58;1.70;98.70
3356;DHT22;1691;52.486;13.374;2022-11-20T16:26:30;1.60;98.70
3356;DHT22;1691;52.486;13.374;2022-11-20T16:28:59;1.50;98.70
3356;DHT22;1691;52.486;13.374;2022-11-20T16:31:26;1.40;98.70
3356;DHT22;1691;52.486;13.374;2022-11-20T16:33:55;1.30;98.70
3356;DHT22;1691;52.486;13.374;2022-11-20T16:36:24;1.20;98.70
3356;DHT22;1691;52.486;13.374;2022-11-20T16:38:54;1.20;98.70
3356;DHT22;1691;52.486;13.374;2022-11-20T16:41:22;1.10;98.70
3356;DHT22;1691;52.486;13.374;2022-11-20T16:43:52;1.00;98.70
3356;DHT22;1691;52.486;13.374;2022-11-20T16:46:22;1.00;98.70
3356;DHT22;1691;52.486;13.374;2022-11-20T16:48:55;0.90;98.70
3356;DHT22;1691;52.486;13.374;2022-11-20T16:51:30;0.90;98.70
3356;DHT22;1691;52.486;13.374;2022-11-20T16:54:05;0.80;98.70
3356;DHT22;1691;52.486;13.374;2022-11-20T16:56:33;0.80;98.70
3356;DHT22;1691;52.486;13.374;2022-11-20T16:59:00;0.70;98.70
3356;DHT22;1691;52.486;13.374;2022-11-20T17:01:29;0.80;98.70
3356;DHT22;1691;52.486;13.374;2022-11-20T17:04:01;0.80;98.70
3356;DHT22;1691;52.486;13.374;2022-11-20T17:06:31;0.80;98.70
3356;DHT22;1691;52.486;13.374;2022-11-20T17:09:00;0.80;98.70
3356;DHT22;1691;52.486;13.374;2022-11-20T17:11:27;0.80;98.70
3356;DHT22;1691;52.486;13.374;2022-11-20T17:13:56;0.80;98.70
3356;DHT22;1691;52.486;13.374;2022-11-20T17:16:26;0.80;98.70
3356;DHT22;1691;52.486;13.374;2022-11-20T17:18:54;0.70;98.70
3356;DHT22;1691;52.486;13.374;2022-11-20T17:21:29;0.70;98.70
3356;DHT22;1691;52.486;13.374;2022-11-20T17:24:03;0.70;98.70
3356;DHT22;1691;52.486;13.374;2022-11-20T17:26:32;0.80;98.70
3356;DHT22;1691;52.486;13.374;2022-11-20T17:29:02;0.80;98.70
3356;DHT22;1691;52.486;13.374;2022-11-20T17:31:31;0.80;98.70
3356;DHT22;1691;52.486;13.374;2022-11-20T17:33:59;0.90;98.70
3356;DHT22;1691;52.486;13.374;2022-11-20T17:36:28;1.00;98.70
3356;DHT22;1691;52.486;13.374;2022-11-20T17:38:55;1.00;98.70
3356;DHT22;1691;52.486;13.374;2022-11-20T17:41:24;1.10;98.70
3356;DHT22;1691;52.486;13.374;2022-11-20T17:43:57;1.20;98.70
3356;DHT22;1691;52.486;13.374;2022-11-20T17:46:30;1.20;98.70
3356;DHT22;1691;52.486;13.374;2022-11-20T17:48:59;1.30;98.70
3356;DHT22;1691;52.486;13.374;2022-11-20T17:51:29;1.40;98.70
3356;DHT22;1691;52.486;13.374;2022-11-20T17:53:59;1.40;98.70
3356;DHT22;1691;52.486;13.374;2022-11-20T17:56:32;1.40;98.70
3356;DHT22;1691;52.486;13.374;2022-11-20T17:59:19;1.50;98.70
3356;DHT22;1691;52.486;13.374;2022-11-20T18:01:47;1.50;98.70
3356;DHT22;1691;52.486;13.374;2022-11-20T18:04:14;1.50;98.70
3356;DHT22;1691;52.486;13.374;2022-11-20T18:06:42;1.50;98.70
3356;DHT22;1691;52.486;13.374;2022-11-20T18:09:09;1.60;98.70
3356;DHT22;1691;52.486;13.374;2022-11-20T18:11:38;1.50;98.70
3356;DHT22;1691;52.486;13.374;2022-11-20T18:14:11;1.50;98.70
3356;DHT22;1691;52.486;13.374;2022-11-20T18:16:56;1.40;98.70
3356;DHT22;1691;52.486;13.374;2022-11-20T18:19:26;1.30;98.70
3356;DHT22;1691;52.486;13.374;2022-11-20T18:21:59;1.20;98.70
3356;DHT22;1691;52.486;13.374;2022-11-20T18:24:30;1.10;98.70
3356;DHT22;1691;52.486;13.374;2022-11-20T18:26:58;1.00;98.70
3356;DHT22;1691;52.486;13.374;2022-11-20T18:29:25;0.90;98.70
3356;DHT22;1691;52.486;13.374;2022-11-20T18:31:53;0.80;98.70